sensor_id;sensor_type;location;lat;lon;timestamp;P1;durP1;ratioP1;P2;durP2;ratioP2
19173;SDS011;9719;49.322;8.536;2024-02-26T00:01:19;4.35;;;1.10;;
19173;SDS011;9719;49.322;8.536;2024-02-26T00:06:21;0.82;;;0.82;;
19173;SDS011;9719;49.322;8.536;2024-02-26T00:11:24;1.30;;;1.20;;
19173;SDS011;9719;49.322;8.536;2024-02-26T00:16:25;0.82;;;0.82;;
19173;SDS011;9719;49.322;8.536;2024-02-26T00:21:27;1.23;;;1.23;;
19173;SDS011;9719;49.322;8.536;2024-02-26T00:26:30;1.63;;;1.55;;
19173;SDS011;9719;49.322;8.536;2024-02-26T00:31:32;1.15;;;1.15;;
19173;SDS011;9719;49.322;8.536;2024-02-26T00:36:34;1.80;;;1.70;;
19173;SDS011;9719;49.322;8.536;2024-02-26T00:41:39;1.52;;;1.00;;
19173;SDS011;9719;49.322;8.536;2024-02-26T00:46:41;0.85;;;0.85;;
19173;SDS011;9719;49.322;8.536;2024-02-26T00:51:42;0.90;;;0.90;;
19173;SDS011;9719;49.322;8.536;2024-02-26T00:56:45;1.67;;;1.33;;
19173;SDS011;9719;49.322;8.536;2024-02-26T01:01:47;1.95;;;1.85;;
19173;SDS011;9719;49.322;8.536;2024-02-26T01:06:49;1.20;;;1.20;;
19173;SDS011;9719;49.322;8.536;2024-02-26T01:11:52;0.88;;;0.88;;
19173;SDS011;9719;49.322;8.536;2024-02-26T01:16:53;0.93;;;0.93;;
19173;SDS011;9719;49.322;8.536;2024-02-26T01:21:55;1.27;;;1.27;;
19173;SDS011;9719;49.322;8.536;2024-02-26T01:26:58;1.10;;;1.10;;
19173;SDS011;9719;49.322;8.536;2024-02-26T01:31:59;1.35;;;1.27;;
19173;SDS011;9719;49.322;8.536;2024-02-26T01:37:02;1.92;;;1.10;;
19173;SDS011;9719;49.322;8.536;2024-02-26T01:42:05;0.90;;;0.90;;
19173;SDS011;9719;49.322;8.536;2024-02-26T01:47:07;1.00;;;1.00;;
19173;SDS011;9719;49.322;8.536;2024-02-26T01:52:11;0.88;;;0.88;;
19173;SDS011;9719;49.322;8.536;2024-02-26T01:57:14;1.08;;;1.08;;
19173;SDS011;9719;49.322;8.536;2024-02-26T02:02:16;1.33;;;1.33;;
19173;SDS011;9719;49.322;8.536;2024-02-26T02:07:18;1.00;;;1.00;;
19173;SDS011;9719;49.322;8.536;2024-02-26T02:12:23;0.93;;;0.93;;
19173;SDS011;9719;49.322;8.536;2024-02-26T02:17:26;1.40;;;1.30;;
19173;SDS011;9719;49.322;8.536;2024-02-26T02:22:30;2.03;;;1.83;;
19173;SDS011;9719;49.322;8.536;2024-02-26T02:27:33;0.88;;;0.88;;
19173;SDS011;9719;49.322;8.536;2024-02-26T02:32:35;1.05;;;0.98;;
19173;SDS011;9719;49.322;8.536;2024-02-26T02:37:40;2.28;;;1.10;;
19173;SDS011;9719;49.322;8.536;2024-02-26T02:42:41;0.63;;;0.63;;
19173;SDS011;9719;49.322;8.536;2024-02-26T02:47:43;0.90;;;0.90;;
19173;SDS011;9719;49.322;8.536;2024-02-26T02:52:46;0.70;;;0.70;;
19173;SDS011;9719;49.322;8.536;2024-02-26T02:57:48;0.60;;;0.60;;
19173;SDS011;9719;49.322;8.536;2024-02-26T03:02:50;1.20;;;1.20;;
19173;SDS011;9719;49.322;8.536;2024-02-26T03:07:53;0.80;;;0.80;;
19173;SDS011;9719;49.322;8.536;2024-02-26T03:12:54;0.93;;;0.93;;
19173;SDS011;9719;49.322;8.536;2024-02-26T03:17:57;0.70;;;0.70;;
19173;SDS011;9719;49.322;8.536;2024-02-26T03:23:00;0.70;;;0.70;;
19173;SDS011;9719;49.322;8.536;2024-02-26T03:28:01;0.60;;;0.60;;
19173;SDS011;9719;49.322;8.536;2024-02-26T03:33:03;1.55;;;1.45;;
19173;SDS011;9719;49.322;8.536;2024-02-26T03:38:06;1.00;;;1.00;;
19173;SDS011;9719;49.322;8.536;2024-02-26T03:43:08;1.10;;;1.10;;
19173;SDS011;9719;49.322;8.536;2024-02-26T03:48:10;0.63;;;0.63;;
19173;SDS011;9719;49.322;8.536;2024-02-26T03:53:13;0.93;;;0.93;;
19173;SDS011;9719;49.322;8.536;2024-02-26T03:58:14;0.70;;;0.70;;
19173;SDS011;9719;49.322;8.536;2024-02-26T04:03:16;0.93;;;0.93;;
19173;SDS011;9719;49.322;8.536;2024-02-26T04:08:19;1.25;;;1.25;;
19173;SDS011;9719;49.322;8.536;2024-02-26T04:13:21;0.85;;;0.85;;
19173;SDS011;9719;49.322;8.536;2024-02-26T04:18:22;1.08;;;1.08;;
19173;SDS011;9719;49.322;8.536;2024-02-26T04:23:26;0.80;;;0.80;;
19173;SDS011;9719;49.322;8.536;2024-02-26T04:28:27;1.05;;;0.98;;
19173;SDS011;9719;49.322;8.536;2024-02-26T04:33:29;0.80;;;0.80;;
19173;SDS011;9719;49.322;8.536;2024-02-26T04:38:32;0.70;;;0.70;;
19173;SDS011;9719;49.322;8.536;2024-02-26T04:43:35;0.80;;;0.80;;
19173;SDS011;9719;49.322;8.536;2024-02-26T04:48:41;0.70;;;0.70;;
19173;SDS011;9719;49.322;8.536;2024-02-26T04:53:46;0.90;;;0.90;;
19173;SDS011;9719;49.322;8.536;2024-02-26T04:58:47;0.90;;;0.90;;
19173;SDS011;9719;49.322;8.536;2024-02-26T05:03:49;1.33;;;0.90;;
19173;SDS011;9719;49.322;8.536;2024-02-26T05:08:52;1.85;;;1.10;;
19173;SDS011;9719;49.322;8.536;2024-02-26T05:13:54;1.38;;;1.27;;
19173;SDS011;9719;49.322;8.536;2024-02-26T05:18:55;0.82;;;0.82;;
19173;SDS011;9719;49.322;8.536;2024-02-26T05:23:58;0.90;;;0.90;;
19173;SDS011;9719;49.322;8.536;2024-02-26T05:29:00;1.25;;;1.20;;
19173;SDS011;9719;49.322;8.536;2024-02-26T05:34:01;0.98;;;0.93;;
19173;SDS011;9719;49.322;8.536;2024-02-26T05:39:04;0.90;;;0.90;;
19173;SDS011;9719;49.322;8.536;2024-02-26T05:44:07;3.42;;;1.15;;
19173;SDS011;9719;49.322;8.536;2024-02-26T05:49:10;0.80;;;0.80;;
19173;SDS011;9719;49.322;8.536;2024-02-26T05:54:13;1.08;;;1.08;;
19173;SDS011;9719;49.322;8.536;2024-02-26T05:59:15;1.08;;;0.98;;
19173;SDS011;9719;49.322;8.536;2024-02-26T06:04:16;1.27;;;1.20;;
19173;SDS011;9719;49.322;8.536;2024-02-26T06:09:19;0.98;;;0.98;;
19173;SDS011;9719;49.322;8.536;2024-02-26T06:14:21;1.17;;;1.10;;
19173;SDS011;9719;49.322;8.536;2024-02-26T06:19:23;1.20;;;1.17;;
19173;SDS011;9719;49.322;8.536;2024-02-26T06:24:26;1.83;;;1.63;;
19173;SDS011;9719;49.322;8.536;2024-02-26T06:29:28;1.00;;;1.00;;
19173;SDS011;9719;49.322;8.536;2024-02-26T06:34:29;0.98;;;0.98;;
19173;SDS011;9719;49.322;8.536;2024-02-26T06:39:32;1.27;;;1.17;;
19173;SDS011;9719;49.322;8.536;2024-02-26T06:44:34;1.67;;;1.58;;
19173;SDS011;9719;49.322;8.536;2024-02-26T06:49:36;0.88;;;0.88;;
19173;SDS011;9719;49.322;8.536;2024-02-26T06:54:39;1.45;;;1.45;;
19173;SDS011;9719;49.322;8.536;2024-02-26T06:59:41;1.90;;;1.80;;
19173;SDS011;9719;49.322;8.536;2024-02-26T07:04:46;1.38;;;1.27;;
19173;SDS011;9719;49.322;8.536;2024-02-26T07:09:49;1.30;;;1.30;;
19173;SDS011;9719;49.322;8.536;2024-02-26T07:14:50;1.10;;;1.10;;
19173;SDS011;9719;49.322;8.536;2024-02-26T07:19:52;0.93;;;0.93;;
19173;SDS011;9719;49.322;8.536;2024-02-26T07:24:55;1.33;;;1.30;;
19173;SDS011;9719;49.322;8.536;2024-02-26T07:29:57;1.17;;;1.17;;
19173;SDS011;9719;49.322;8.536;2024-02-26T07:34:59;0.88;;;0.88;;
19173;SDS011;9719;49.322;8.536;2024-02-26T07:40:02;1.77;;;1.67;;
19173;SDS011;9719;49.322;8.536;2024-02-26T07:45:04;3.58;;;2.03;;
19173;SDS011;9719;49.322;8.536;2024-02-26T07:50:07;1.20;;;1.20;;
19173;SDS011;9719;49.322;8.536;2024-02-26T07:55:10;1.08;;;1.08;;
19173;SDS011;9719;49.322;8.536;2024-02-26T08:00:12;1.63;;;1.38;;
19173;SDS011;9719;49.322;8.536;2024-02-26T08:05:16;1.48;;;1.40;;
19173;SDS011;9719;49.322;8.536;2024-02-26T08:10:19;1.52;;;1.17;;
19173;SDS011;9719;49.322;8.536;2024-02-26T08:15:21;1.77;;;1.25;;
19173;SDS011;9719;49.322;8.536;2024-02-26T08:20:23;1.58;;;1.10;;
19173;SDS011;9719;49.322;8.536;2024-02-26T08:25:26;1.27;;;1.02;;
19173;SDS011;9719;49.322;8.536;2024-02-26T08:30:27;1.00;;;1.00;;
19173;SDS011;9719;49.322;8.536;2024-02-26T08:35:29;1.15;;;1.15;;
19173;SDS011;9719;49.322;8.536;2024-02-26T08:40:32;1.10;;;1.10;;
19173;SDS011;9719;49.322;8.536;2024-02-26T08:45:34;2.08;;;1.58;;
19173;SDS011;9719;49.322;8.536;2024-02-26T08:50:35;1.33;;;1.30;;
19173;SDS011;9719;49.322;8.536;2024-02-26T08:55:38;1.75;;;1.25;;
19173;SDS011;9719;49.322;8.536;2024-02-26T09:00:40;1.27;;;1.27;;
19173;SDS011;9719;49.322;8.536;2024-02-26T09:05:42;1.45;;;1.35;;
19173;SDS011;9719;49.322;8.536;2024-02-26T09:10:45;1.48;;;1.02;;
19173;SDS011;9719;49.322;8.536;2024-02-26T09:15:47;1.88;;;1.67;;
19173;SDS011;9719;49.322;8.536;2024-02-26T09:20:49;3.10;;;1.38;;
19173;SDS011;9719;49.322;8.536;2024-02-26T09:25:52;2.58;;;1.25;;
19173;SDS011;9719;49.322;8.536;2024-02-26T09:30:54;1.60;;;1.50;;
19173;SDS011;9719;49.322;8.536;2024-02-26T09:35:55;1.77;;;1.67;;
19173;SDS011;9719;49.322;8.536;2024-02-26T09:40:58;2.03;;;1.92;;
19173;SDS011;9719;49.322;8.536;2024-02-26T09:46:00;1.05;;;1.05;;
19173;SDS011;9719;49.322;8.536;2024-02-26T09:51:03;1.20;;;1.20;;
19173;SDS011;9719;49.322;8.536;2024-02-26T09:56:06;1.13;;;1.08;;
19173;SDS011;9719;49.322;8.536;2024-02-26T10:01:10;1.00;;;1.00;;
19173;SDS011;9719;49.322;8.536;2024-02-26T10:06:16;1.20;;;1.20;;
19173;SDS011;9719;49.322;8.536;2024-02-26T10:11:19;1.65;;;1.13;;
19173;SDS011;9719;49.322;8.536;2024-02-26T10:16:23;1.15;;;1.15;;
19173;SDS011;9719;49.322;8.536;2024-02-26T10:21:26;1.10;;;1.10;;
19173;SDS011;9719;49.322;8.536;2024-02-26T10:26:29;1.10;;;1.00;;
19173;SDS011;9719;49.322;8.536;2024-02-26T10:31:31;1.63;;;1.50;;
19173;SDS011;9719;49.322;8.536;2024-02-26T10:36:33;1.48;;;1.38;;
19173;SDS011;9719;49.322;8.536;2024-02-26T10:41:36;1.70;;;1.30;;
19173;SDS011;9719;49.322;8.536;2024-02-26T10:46:38;1.33;;;1.33;;
19173;SDS011;9719;49.322;8.536;2024-02-26T10:51:42;1.05;;;0.93;;
19173;SDS011;9719;49.322;8.536;2024-02-26T10:56:47;1.05;;;1.00;;
19173;SDS011;9719;49.322;8.536;2024-02-26T11:01:51;1.35;;;1.00;;
19173;SDS011;9719;49.322;8.536;2024-02-26T11:06:53;1.00;;;1.00;;
19173;SDS011;9719;49.322;8.536;2024-02-26T11:11:57;1.50;;;0.90;;
19173;SDS011;9719;49.322;8.536;2024-02-26T11:17:00;1.00;;;0.98;;
19173;SDS011;9719;49.322;8.536;2024-02-26T11:22:02;1.17;;;1.15;;
19173;SDS011;9719;49.322;8.536;2024-02-26T11:27:05;0.95;;;0.95;;
19173;SDS011;9719;49.322;8.536;2024-02-26T11:32:08;0.85;;;0.85;;
19173;SDS011;9719;49.322;8.536;2024-02-26T11:37:11;1.33;;;1.23;;
19173;SDS011;9719;49.322;8.536;2024-02-26T11:42:15;0.90;;;0.90;;
19173;SDS011;9719;49.322;8.536;2024-02-26T11:47:19;1.40;;;1.30;;
19173;SDS011;9719;49.322;8.536;2024-02-26T11:52:21;0.90;;;0.90;;
19173;SDS011;9719;49.322;8.536;2024-02-26T11:57:25;3.58;;;1.65;;
19173;SDS011;9719;49.322;8.536;2024-02-26T12:02:38;1.10;;;1.10;;
19173;SDS011;9719;49.322;8.536;2024-02-26T12:07:45;0.70;;;0.70;;
19173;SDS011;9719;49.322;8.536;2024-02-26T12:12:49;0.88;;;0.88;;
19173;SDS011;9719;49.322;8.536;2024-02-26T12:17:53;1.23;;;1.13;;
19173;SDS011;9719;49.322;8.536;2024-02-26T12:22:55;1.38;;;1.27;;
19173;SDS011;9719;49.322;8.536;2024-02-26T12:27:59;0.98;;;0.98;;
19173;SDS011;9719;49.322;8.536;2024-02-26T12:33:01;1.00;;;1.00;;
19173;SDS011;9719;49.322;8.536;2024-02-26T12:38:03;0.88;;;0.85;;
19173;SDS011;9719;49.322;8.536;2024-02-26T12:43:07;1.00;;;1.00;;
19173;SDS011;9719;49.322;8.536;2024-02-26T12:48:12;1.13;;;1.05;;
19173;SDS011;9719;49.322;8.536;2024-02-26T12:53:15;1.20;;;1.10;;
19173;SDS011;9719;49.322;8.536;2024-02-26T12:58:18;1.40;;;1.23;;
19173;SDS011;9719;49.322;8.536;2024-02-26T13:03:24;0.60;;;0.60;;
19173;SDS011;9719;49.322;8.536;2024-02-26T13:08:27;0.95;;;0.95;;
19173;SDS011;9719;49.322;8.536;2024-02-26T13:13:30;0.70;;;0.70;;
19173;SDS011;9719;49.322;8.536;2024-02-26T13:18:32;1.38;;;0.88;;
19173;SDS011;9719;49.322;8.536;2024-02-26T13:23:34;0.47;;;0.47;;
19173;SDS011;9719;49.322;8.536;2024-02-26T13:28:37;0.57;;;0.57;;
19173;SDS011;9719;49.322;8.536;2024-02-26T13:33:39;0.60;;;0.60;;
19173;SDS011;9719;49.322;8.536;2024-02-26T13:38:40;0.70;;;0.70;;
19173;SDS011;9719;49.322;8.536;2024-02-26T13:43:54;0.40;;;0.40;;
19173;SDS011;9719;49.322;8.536;2024-02-26T13:48:57;0.50;;;0.50;;
19173;SDS011;9719;49.322;8.536;2024-02-26T13:53:59;0.52;;;0.52;;
19173;SDS011;9719;49.322;8.536;2024-02-26T13:59:02;0.88;;;0.88;;
19173;SDS011;9719;49.322;8.536;2024-02-26T14:04:04;0.47;;;0.47;;
19173;SDS011;9719;49.322;8.536;2024-02-26T14:09:07;0.68;;;0.68;;
19173;SDS011;9719;49.322;8.536;2024-02-26T14:14:10;0.65;;;0.65;;
19173;SDS011;9719;49.322;8.536;2024-02-26T14:19:12;0.45;;;0.45;;
19173;SDS011;9719;49.322;8.536;2024-02-26T14:24:14;0.75;;;0.75;;
19173;SDS011;9719;49.322;8.536;2024-02-26T14:29:17;0.70;;;0.70;;
19173;SDS011;9719;49.322;8.536;2024-02-26T14:34:18;0.57;;;0.57;;
19173;SDS011;9719;49.322;8.536;2024-02-26T14:39:20;0.40;;;0.40;;
19173;SDS011;9719;49.322;8.536;2024-02-26T14:44:23;0.60;;;0.60;;
19173;SDS011;9719;49.322;8.536;2024-02-26T14:49:25;0.50;;;0.50;;
19173;SDS011;9719;49.322;8.536;2024-02-26T14:54:27;0.50;;;0.50;;
19173;SDS011;9719;49.322;8.536;2024-02-26T14:59:34;0.40;;;0.40;;
19173;SDS011;9719;49.322;8.536;2024-02-26T15:04:36;0.50;;;0.50;;
19173;SDS011;9719;49.322;8.536;2024-02-26T15:09:38;0.50;;;0.50;;
19173;SDS011;9719;49.322;8.536;2024-02-26T15:14:41;0.40;;;0.40;;
19173;SDS011;9719;49.322;8.536;2024-02-26T15:19:44;0.60;;;0.60;;
19173;SDS011;9719;49.322;8.536;2024-02-26T15:24:46;0.60;;;0.60;;
19173;SDS011;9719;49.322;8.536;2024-02-26T15:29:49;0.60;;;0.60;;
19173;SDS011;9719;49.322;8.536;2024-02-26T15:34:57;0.50;;;0.50;;
19173;SDS011;9719;49.322;8.536;2024-02-26T15:39:58;0.40;;;0.40;;
19173;SDS011;9719;49.322;8.536;2024-02-26T15:45:02;0.60;;;0.60;;
19173;SDS011;9719;49.322;8.536;2024-02-26T15:50:04;1.25;;;0.70;;
19173;SDS011;9719;49.322;8.536;2024-02-26T15:55:06;1.02;;;0.77;;
19173;SDS011;9719;49.322;8.536;2024-02-26T16:00:11;0.77;;;0.77;;
19173;SDS011;9719;49.322;8.536;2024-02-26T16:05:13;0.70;;;0.70;;
19173;SDS011;9719;49.322;8.536;2024-02-26T16:10:15;0.63;;;0.63;;
19173;SDS011;9719;49.322;8.536;2024-02-26T16:15:18;1.45;;;0.65;;
19173;SDS011;9719;49.322;8.536;2024-02-26T16:20:21;1.35;;;1.27;;
19173;SDS011;9719;49.322;8.536;2024-02-26T16:25:24;1.42;;;1.33;;
19173;SDS011;9719;49.322;8.536;2024-02-26T16:30:28;1.83;;;1.40;;
19173;SDS011;9719;49.322;8.536;2024-02-26T16:35:32;2.22;;;1.38;;
19173;SDS011;9719;49.322;8.536;2024-02-26T16:40:33;1.50;;;1.08;;
19173;SDS011;9719;49.322;8.536;2024-02-26T16:45:37;3.20;;;1.40;;
19173;SDS011;9719;49.322;8.536;2024-02-26T16:50:39;1.63;;;1.42;;
19173;SDS011;9719;49.322;8.536;2024-02-26T16:55:41;1.52;;;1.42;;
19173;SDS011;9719;49.322;8.536;2024-02-26T17:00:44;3.63;;;2.72;;
19173;SDS011;9719;49.322;8.536;2024-02-26T17:05:46;2.03;;;1.90;;
19173;SDS011;9719;49.322;8.536;2024-02-26T17:10:47;2.03;;;1.75;;
19173;SDS011;9719;49.322;8.536;2024-02-26T17:15:51;1.25;;;1.25;;
19173;SDS011;9719;49.322;8.536;2024-02-26T17:20:52;1.63;;;1.52;;
19173;SDS011;9719;49.322;8.536;2024-02-26T17:25:55;1.83;;;1.58;;
19173;SDS011;9719;49.322;8.536;2024-02-26T17:30:58;2.22;;;2.13;;
19173;SDS011;9719;49.322;8.536;2024-02-26T17:36:00;2.17;;;1.83;;
19173;SDS011;9719;49.322;8.536;2024-02-26T17:41:01;2.15;;;1.88;;
19173;SDS011;9719;49.322;8.536;2024-02-26T17:46:07;1.30;;;1.27;;
19173;SDS011;9719;49.322;8.536;2024-02-26T17:51:08;2.80;;;1.40;;
19173;SDS011;9719;49.322;8.536;2024-02-26T17:56:11;1.63;;;1.52;;
19173;SDS011;9719;49.322;8.536;2024-02-26T18:01:15;2.45;;;1.40;;
19173;SDS011;9719;49.322;8.536;2024-02-26T18:06:16;2.70;;;1.38;;
19173;SDS011;9719;49.322;8.536;2024-02-26T18:11:19;1.60;;;1.50;;
19173;SDS011;9719;49.322;8.536;2024-02-26T18:16:22;1.60;;;1.50;;
19173;SDS011;9719;49.322;8.536;2024-02-26T18:21:24;1.38;;;1.27;;
19173;SDS011;9719;49.322;8.536;2024-02-26T18:26:26;1.38;;;1.35;;
19173;SDS011;9719;49.322;8.536;2024-02-26T18:31:29;1.42;;;1.40;;
19173;SDS011;9719;49.322;8.536;2024-02-26T18:36:30;1.50;;;1.45;;
19173;SDS011;9719;49.322;8.536;2024-02-26T18:41:32;1.83;;;1.55;;
19173;SDS011;9719;49.322;8.536;2024-02-26T18:46:36;1.90;;;1.73;;
19173;SDS011;9719;49.322;8.536;2024-02-26T18:51:44;1.70;;;1.60;;
19173;SDS011;9719;49.322;8.536;2024-02-26T18:56:46;2.05;;;1.95;;
19173;SDS011;9719;49.322;8.536;2024-02-26T19:01:49;3.22;;;2.65;;
19173;SDS011;9719;49.322;8.536;2024-02-26T19:06:50;2.63;;;2.42;;
19173;SDS011;9719;49.322;8.536;2024-02-26T19:11:52;1.48;;;1.48;;
19173;SDS011;9719;49.322;8.536;2024-02-26T19:16:56;2.22;;;2.10;;
19173;SDS011;9719;49.322;8.536;2024-02-26T19:21:58;3.47;;;2.40;;
19173;SDS011;9719;49.322;8.536;2024-02-26T19:27:00;2.47;;;2.22;;
19173;SDS011;9719;49.322;8.536;2024-02-26T19:32:03;1.73;;;1.63;;
19173;SDS011;9719;49.322;8.536;2024-02-26T19:37:05;2.38;;;2.15;;
19173;SDS011;9719;49.322;8.536;2024-02-26T19:42:07;3.28;;;2.90;;
19173;SDS011;9719;49.322;8.536;2024-02-26T19:47:12;2.92;;;2.22;;
19173;SDS011;9719;49.322;8.536;2024-02-26T19:52:13;1.73;;;1.63;;
19173;SDS011;9719;49.322;8.536;2024-02-26T19:57:16;1.92;;;1.83;;
19173;SDS011;9719;49.322;8.536;2024-02-26T20:02:19;3.00;;;2.20;;
19173;SDS011;9719;49.322;8.536;2024-02-26T20:07:21;2.40;;;2.20;;
19173;SDS011;9719;49.322;8.536;2024-02-26T20:12:23;2.47;;;2.28;;
19173;SDS011;9719;49.322;8.536;2024-02-26T20:17:26;3.63;;;2.60;;
19173;SDS011;9719;49.322;8.536;2024-02-26T20:22:27;2.38;;;2.17;;
19173;SDS011;9719;49.322;8.536;2024-02-26T20:27:29;2.42;;;2.30;;
19173;SDS011;9719;49.322;8.536;2024-02-26T20:32:32;3.40;;;2.28;;
19173;SDS011;9719;49.322;8.536;2024-02-26T20:37:34;2.08;;;1.98;;
19173;SDS011;9719;49.322;8.536;2024-02-26T20:42:36;2.72;;;2.33;;
19173;SDS011;9719;49.322;8.536;2024-02-26T20:47:39;2.22;;;2.13;;
19173;SDS011;9719;49.322;8.536;2024-02-26T20:52:41;2.45;;;2.25;;
19173;SDS011;9719;49.322;8.536;2024-02-26T20:57:43;2.22;;;2.13;;
19173;SDS011;9719;49.322;8.536;2024-02-26T21:02:46;8.10;;;2.35;;
19173;SDS011;9719;49.322;8.536;2024-02-26T21:07:48;2.03;;;1.83;;
19173;SDS011;9719;49.322;8.536;2024-02-26T21:12:49;1.65;;;1.55;;
19173;SDS011;9719;49.322;8.536;2024-02-26T21:17:52;1.88;;;1.77;;
19173;SDS011;9719;49.322;8.536;2024-02-26T21:22:54;1.52;;;1.42;;
19173;SDS011;9719;49.322;8.536;2024-02-26T21:27:56;2.00;;;1.73;;
19173;SDS011;9719;49.322;8.536;2024-02-26T21:33:00;1.42;;;1.33;;
19173;SDS011;9719;49.322;8.536;2024-02-26T21:38:03;2.92;;;2.00;;
19173;SDS011;9719;49.322;8.536;2024-02-26T21:43:05;1.95;;;1.75;;
19173;SDS011;9719;49.322;8.536;2024-02-26T21:48:08;1.30;;;1.20;;
19173;SDS011;9719;49.322;8.536;2024-02-26T21:53:09;1.55;;;1.45;;
19173;SDS011;9719;49.322;8.536;2024-02-26T21:58:11;2.15;;;2.05;;
19173;SDS011;9719;49.322;8.536;2024-02-26T22:03:14;1.60;;;1.50;;
19173;SDS011;9719;49.322;8.536;2024-02-26T22:08:16;2.45;;;2.30;;
19173;SDS011;9719;49.322;8.536;2024-02-26T22:13:18;2.20;;;2.10;;
19173;SDS011;9719;49.322;8.536;2024-02-26T22:18:21;2.13;;;2.03;;
19173;SDS011;9719;49.322;8.536;2024-02-26T22:23:22;2.35;;;1.98;;
19173;SDS011;9719;49.322;8.536;2024-02-26T22:28:24;1.80;;;1.70;;
19173;SDS011;9719;49.322;8.536;2024-02-26T22:33:27;3.85;;;1.88;;
19173;SDS011;9719;49.322;8.536;2024-02-26T22:38:29;1.95;;;1.85;;
19173;SDS011;9719;49.322;8.536;2024-02-26T22:43:30;2.20;;;2.00;;
19173;SDS011;9719;49.322;8.536;2024-02-26T22:48:34;1.73;;;1.60;;
19173;SDS011;9719;49.322;8.536;2024-02-26T22:53:36;2.35;;;2.22;;
19173;SDS011;9719;49.322;8.536;2024-02-26T22:58:37;2.22;;;2.08;;
19173;SDS011;9719;49.322;8.536;2024-02-26T23:03:40;2.35;;;2.25;;
19173;SDS011;9719;49.322;8.536;2024-02-26T23:08:42;2.35;;;2.17;;
19173;SDS011;9719;49.322;8.536;2024-02-26T23:13:44;2.45;;;1.73;;
19173;SDS011;9719;49.322;8.536;2024-02-26T23:18:48;2.17;;;2.08;;
19173;SDS011;9719;49.322;8.536;2024-02-26T23:23:50;4.13;;;3.55;;
19173;SDS011;9719;49.322;8.536;2024-02-26T23:28:52;2.78;;;2.58;;
19173;SDS011;9719;49.322;8.536;2024-02-26T23:33:55;2.95;;;2.00;;
19173;SDS011;9719;49.322;8.536;2024-02-26T23:38:57;1.48;;;1.48;;
19173;SDS011;9719;49.322;8.536;2024-02-26T23:44:00;3.00;;;2.80;;
19173;SDS011;9719;49.322;8.536;2024-02-26T23:49:03;2.47;;;2.38;;
19173;SDS011;9719;49.322;8.536;2024-02-26T23:54:06;2.28;;;2.03;;
19173;SDS011;9719;49.322;8.536;2024-02-26T23:59:08;1.58;;;1.48;;
